Time;durP1;ratioP1;P1;durP2;ratioP2;P2;SDS_P1;SDS_P2;PMS_P1;PMS_P2;Temp;Humidity;BMP_temperature;BMP_pressure;BME280_temperature;BME280_humidity;BME280_pressure;Samples;Min_cycle;Max_cycle;Signal;HPM_P1;HPM_P2
2023/10/08 00:02:03;;;;;;;10.63;4.35;;;;;;;15.76;84.92;102198.31;5028727;28;20043;-71
2023/10/08 00:04:29;;;;;;;8.15;4.05;;;;;;;15.73;85.48;102205.88;5027625;28;20132;-70
2023/10/08 00:06:54;;;;;;;10.40;4.07;;;;;;;15.71;85.62;102213.34;5028521;28;20102;-71
2023/10/08 00:09:20;;;;;;;10.45;5.05;;;;;;;15.68;85.21;102214.44;5034973;28;20064;-69
2023/10/08 00:11:52;;;;;;;9.02;4.30;;;;;;;15.62;85.13;102198.41;5028237;28;20063;-70
2023/10/08 00:14:21;;;;;;;10.10;4.47;;;;;;;15.58;85.74;102199.63;5028433;28;20040;-70
2023/10/08 00:16:49;;;;;;;11.15;3.95;;;;;;;15.53;85.40;102202.69;5029383;28;20037;-71
2023/10/08 00:19:17;;;;;;;9.43;4.18;;;;;;;15.51;86.01;102203.75;5027060;28;20531;-72
2023/10/08 00:21:45;;;;;;;10.93;4.15;;;;;;;15.47;85.95;102207.72;5028081;28;20052;-70
2023/10/08 00:24:10;;;;;;;11.23;4.30;;;;;;;15.46;86.45;102212.31;5026807;28;20132;-72
2023/10/08 00:26:39;;;;;;;11.52;4.57;;;;;;;15.42;86.89;102221.75;5040591;28;20123;-71
2023/10/08 00:29:15;;;;;;;7.57;4.43;;;;;;;15.38;86.34;102214.72;5043190;28;20048;-70
2023/10/08 00:31:44;;;;;;;14.55;4.65;;;;;;;15.37;87.26;102210.22;5046087;28;20373;-72
2023/10/08 00:34:12;;;;;;;15.70;5.18;;;;;;;15.32;87.11;102212.44;5029886;28;20040;-73
2023/10/08 00:36:38;;;;;;;9.73;3.92;;;;;;;15.31;87.40;102224.38;5026678;28;20037;-69
2023/10/08 00:39:13;;;;;;;9.45;4.47;;;;;;;15.26;87.15;102212.88;5010044;28;20025;-71
2023/10/08 00:41:50;;;;;;;12.27;3.97;;;;;;;15.22;87.15;102216.81;5031697;28;20410;-70
2023/10/08 00:44:22;;;;;;;16.98;4.95;;;;;;;15.15;87.31;102213.59;5027369;28;20033;-70
2023/10/08 00:46:48;;;;;;;8.57;4.05;;;;;;;15.14;88.04;102213.72;5047417;28;20045;-71
2023/10/08 00:54:33;;;;;;;13.63;4.47;;;;;;;14.98;88.25;102239.47;5042110;28;20033;-72
2023/10/08 00:57:04;;;;;;;11.65;3.92;;;;;;;14.91;88.69;102227.16;5027186;28;20045;-71
2023/10/08 00:59:40;;;;;;;9.65;4.15;;;;;;;14.85;88.94;102224.84;5027328;28;20061;-71
2023/10/08 01:02:06;;;;;;;11.57;4.75;;;;;;;14.80;89.17;102225.16;5026314;28;20041;-71
2023/10/08 01:04:34;;;;;;;11.85;4.43;;;;;;;14.78;89.16;102221.66;5027796;28;20480;-71
2023/10/08 01:07:16;;;;;;;8.27;4.20;;;;;;;14.73;89.66;102221.06;5027542;28;20024;-71
2023/10/08 01:09:43;;;;;;;11.43;4.43;;;;;;;14.72;89.52;102212.94;5041015;28;20033;-72
2023/10/08 01:12:15;;;;;;;11.15;4.28;;;;;;;14.69;89.82;102203.09;5038384;28;20136;-71
2023/10/08 01:14:43;;;;;;;9.13;4.35;;;;;;;14.67;90.17;102201.44;5031123;28;20060;-71
2023/10/08 01:17:12;;;;;;;14.38;5.15;;;;;;;14.63;90.58;102206.22;5033327;28;20037;-71
2023/10/08 01:19:41;;;;;;;13.07;4.60;;;;;;;14.63;90.75;102213.56;5038039;28;20606;-70
2023/10/08 01:22:16;;;;;;;12.48;4.85;;;;;;;14.60;91.17;102211.06;5028705;28;20037;-71
2023/10/08 01:24:43;;;;;;;10.38;3.95;;;;;;;14.56;91.43;102204.03;5025840;28;20041;-71
2023/10/08 01:27:11;;;;;;;9.57;4.57;;;;;;;14.52;91.25;102193.28;5026831;28;20742;-70
2023/10/08 01:29:40;;;;;;;11.15;4.60;;;;;;;14.51;91.34;102193.38;5030350;28;20049;-72
2023/10/08 01:32:10;;;;;;;10.38;4.57;;;;;;;14.50;91.47;102191.59;5035303;28;20400;-70
2023/10/08 01:34:36;;;;;;;8.38;3.95;;;;;;;14.46;92.15;102184.56;5046668;28;20037;-71
2023/10/08 01:37:08;;;;;;;15.82;4.82;;;;;;;14.43;91.93;102187.50;5047179;28;20036;-71
2023/10/08 01:39:37;;;;;;;11.90;4.65;;;;;;;14.39;92.56;102178.63;5028032;28;20050;-73
2023/10/08 01:42:05;;;;;;;12.48;5.20;;;;;;;14.38;92.53;102178.72;5026037;28;20507;-72
2023/10/08 01:44:31;;;;;;;17.90;6.10;;;;;;;14.39;92.40;102181.34;5027294;28;20110;-71
2023/10/08 01:46:58;;;;;;;15.68;6.10;;;;;;;14.40;92.44;102191.31;5025323;28;20088;-70
2023/10/08 01:49:29;;;;;;;11.00;5.63;;;;;;;14.42;92.78;102194.84;5027241;28;20116;-72
2023/10/08 01:51:54;;;;;;;12.52;5.32;;;;;;;14.42;92.90;102193.97;5027166;28;20087;-71
2023/10/08 01:54:21;;;;;;;20.02;5.60;;;;;;;14.43;92.84;102201.19;5026793;28;20037;-72
2023/10/08 01:56:46;;;;;;;12.70;5.47;;;;;;;14.42;92.55;102202.19;5026731;28;20140;-72
2023/10/08 01:59:14;;;;;;;11.75;4.70;;;;;;;14.42;92.86;102214.00;5031512;28;20133;-72
2023/10/08 02:01:45;;;;;;;10.90;5.53;;;;;;;14.44;92.81;102216.63;5044879;28;20075;-70
2023/10/08 02:04:12;;;;;;;12.73;4.93;;;;;;;14.44;92.64;102219.38;5045460;28;20037;-72
2023/10/08 02:06:41;;;;;;;10.35;5.15;;;;;;;14.42;93.34;102224.97;5046816;28;20037;-69
2023/10/08 02:09:10;;;;;;;15.52;6.47;;;;;;;14.43;92.74;102220.38;5034150;28;20046;-72
2023/10/08 02:11:46;;;;;;;13.13;5.32;;;;;;;14.44;92.97;102213.91;5027675;28;20037;-72
2023/10/08 02:14:15;;;;;;;14.55;5.50;;;;;;;14.42;93.21;102214.00;5026740;28;20037;-71
2023/10/08 02:16:40;;;;;;;14.43;4.95;;;;;;;14.43;92.40;102214.88;5045010;28;20098;-72
2023/10/08 02:19:06;;;;;;;10.88;5.82;;;;;;;14.43;92.35;102213.03;5045681;28;20743;-72
2023/10/08 02:21:33;;;;;;;10.13;5.35;;;;;;;14.44;92.78;102209.31;5043726;28;20044;-72
2023/10/08 02:23:58;;;;;;;15.10;5.72;;;;;;;14.42;93.08;102213.13;5025079;28;20068;-72
2023/10/08 02:26:24;;;;;;;11.00;5.55;;;;;;;14.42;92.99;102208.53;5026857;28;20111;-72
2023/10/08 02:28:51;;;;;;;11.45;5.82;;;;;;;14.39;93.53;102214.22;5025661;28;20053;-71
2023/10/08 02:31:18;;;;;;;9.70;5.85;;;;;;;14.40;92.68;102213.22;5026785;28;20037;-71
2023/10/08 02:33:43;;;;;;;14.10;5.60;;;;;;;14.39;93.32;102219.69;5025214;28;20043;-71
2023/10/08 02:36:09;;;;;;;17.85;5.75;;;;;;;14.37;92.91;102224.41;5024858;28;20039;-72
2023/10/08 02:38:37;;;;;;;11.73;5.97;;;;;;;14.33;93.23;102222.84;5037322;28;20021;-72
2023/10/08 02:41:06;;;;;;;9.52;5.30;;;;;;;14.33;93.63;102220.09;5047624;28;20037;-70
2023/10/08 02:43:34;;;;;;;10.65;5.70;;;;;;;14.32;93.08;102221.09;5044747;28;20035;-72
2023/10/08 02:46:00;;;;;;;11.85;5.68;;;;;;;14.33;93.09;102230.19;5033917;28;20397;-71
2023/10/08 02:48:27;;;;;;;11.43;5.20;;;;;;;14.32;93.45;102243.00;5029537;28;20311;-72
2023/10/08 02:50:54;;;;;;;12.52;5.50;;;;;;;14.29;93.57;102243.19;5030226;28;20371;-71
2023/10/08 02:53:25;;;;;;;11.70;5.90;;;;;;;14.30;93.26;102239.47;5028262;28;20100;-71
2023/10/08 02:55:51;;;;;;;16.60;6.30;;;;;;;14.28;93.29;102253.25;5030781;28;20034;-70
2023/10/08 02:58:18;;;;;;;14.95;5.05;;;;;;;14.27;93.54;102250.63;5027901;28;20040;-71
2023/10/08 03:00:48;;;;;;;10.52;4.78;;;;;;;14.25;94.31;102239.75;5035095;28;20041;-71
2023/10/08 03:03:15;;;;;;;11.05;4.95;;;;;;;14.22;94.20;102250.94;5027993;28;20051;-71
2023/10/08 03:06:03;;;;;;;15.07;5.63;;;;;;;14.24;93.57;102237.13;5028626;28;20029;-71
2023/10/08 03:08:31;;;;;;;15.65;5.70;;;;;;;14.23;94.10;102229.91;5027927;28;20067;-71
2023/10/08 03:11:02;;;;;;;15.98;5.18;;;;;;;14.20;94.08;102239.19;5029888;28;20120;-72
2023/10/08 03:13:28;;;;;;;12.75;5.97;;;;;;;14.23;94.25;102243.59;5027432;28;20047;-71
2023/10/08 03:18:42;;;;;;;11.65;5.57;;;;;;;14.21;94.36;102249.16;5046375;28;20079;-71
2023/10/08 03:21:21;;;;;;;12.80;5.57;;;;;;;14.21;94.33;102248.28;5048758;28;20515;-70
2023/10/08 03:23:57;;;;;;;15.93;6.15;;;;;;;14.17;94.64;102250.31;5046494;28;20033;-71
2023/10/08 03:26:33;;;;;;;12.20;6.22;;;;;;;14.17;94.39;102260.41;5041539;28;20037;-71
2023/10/08 03:29:07;;;;;;;14.77;5.60;;;;;;;14.16;94.96;102259.53;5029077;28;20111;-71
2023/10/08 03:34:20;;;;;;;14.48;5.60;;;;;;;14.13;94.85;102254.25;5047774;28;20036;-71
2023/10/08 03:36:49;;;;;;;14.93;6.22;;;;;;;14.11;95.47;102248.00;5029891;28;20104;-72
2023/10/08 03:39:15;;;;;;;15.20;5.45;;;;;;;14.08;95.15;102247.31;5028874;28;20029;-72
2023/10/08 03:41:41;;;;;;;13.63;5.90;;;;;;;14.08;95.35;102250.03;5028852;28;20044;-71
2023/10/08 03:44:13;;;;;;;13.80;6.18;;;;;;;14.08;95.16;102259.13;5029659;28;20037;-72
2023/10/08 03:46:43;;;;;;;16.80;5.90;;;;;;;14.08;95.30;102261.00;5029199;28;20037;-71
2023/10/08 03:49:24;;;;;;;13.75;5.57;;;;;;;14.08;95.47;102259.13;5028903;28;20542;-70
2023/10/08 03:51:52;;;;;;;15.40;5.93;;;;;;;14.07;95.49;102251.03;5029897;28;20493;-72
2023/10/08 03:54:30;;;;;;;12.13;6.03;;;;;;;14.06;95.03;102257.50;5027207;28;20064;-72
2023/10/08 03:56:55;;;;;;;15.27;5.93;;;;;;;14.04;95.45;102260.34;5028501;28;20044;-71
2023/10/08 03:59:30;;;;;;;16.77;6.70;;;;;;;14.03;95.50;102258.56;5029250;28;20373;-71
2023/10/08 04:02:13;;;;;;;17.45;5.72;;;;;;;14.02;95.81;102265.00;5027026;28;20033;-72
2023/10/08 04:04:49;;;;;;;14.18;5.63;;;;;;;14.02;95.56;102251.31;5029017;28;20044;-71
2023/10/08 04:07:24;;;;;;;13.13;6.22;;;;;;;13.98;95.92;102252.50;5045451;28;20072;-70
2023/10/08 04:09:59;;;;;;;17.55;6.40;;;;;;;13.98;96.10;102256.09;5048178;28;20119;-72
2023/10/08 04:12:26;;;;;;;13.55;6.20;;;;;;;13.97;96.15;102261.69;5030106;28;20037;-72
2023/10/08 04:14:55;;;;;;;16.00;7.22;;;;;;;13.95;96.20;102266.41;5028166;28;20030;-73
2023/10/08 04:17:22;;;;;;;13.88;6.05;;;;;;;13.94;96.23;102262.78;5027548;28;20044;-71
2023/10/08 04:19:47;;;;;;;13.88;6.68;;;;;;;13.93;96.42;102279.28;5028705;28;20037;-71
2023/10/08 04:22:16;;;;;;;15.88;6.20;;;;;;;13.90;96.70;102272.16;5032114;28;20043;-72
2023/10/08 04:24:43;;;;;;;15.43;5.72;;;;;;;13.91;96.56;102278.50;5048034;28;20095;-71
2023/10/08 04:27:09;;;;;;;18.05;6.20;;;;;;;13.91;96.59;102278.50;5034105;28;20155;-72
2023/10/08 04:29:37;;;;;;;15.38;6.35;;;;;;;13.90;96.65;102290.44;5028348;28;20091;-72
2023/10/08 04:32:12;;;;;;;12.60;6.47;;;;;;;13.87;97.00;102274.22;5027604;28;20045;-72
2023/10/08 04:34:37;;;;;;;14.25;6.35;;;;;;;13.87;96.74;102282.41;5041318;28;20033;-71
2023/10/08 04:37:12;;;;;;;16.42;6.53;;;;;;;13.87;96.83;102290.63;5033520;28;20056;-71
2023/10/08 04:39:40;;;;;;;10.93;5.95;;;;;;;13.85;97.20;102300.75;5028345;28;20095;-71
2023/10/08 04:42:10;;;;;;;15.40;7.18;;;;;;;13.82;96.85;102300.97;5027966;28;20037;-71
2023/10/08 04:44:39;;;;;;;15.10;6.32;;;;;;;13.81;97.25;102302.84;5028779;28;20041;-71
2023/10/08 04:47:06;;;;;;;12.80;6.95;;;;;;;13.80;97.61;102303.78;5027848;28;20033;-71
2023/10/08 04:49:34;;;;;;;12.60;6.30;;;;;;;13.79;97.39;102310.25;5027958;28;20121;-71
2023/10/08 04:52:15;;;;;;;12.82;6.60;;;;;;;13.78;97.93;102308.50;5027626;28;20029;-71
2023/10/08 04:54:51;;;;;;;11.73;5.78;;;;;;;13.77;97.69;102304.88;5027529;28;20041;-71
2023/10/08 04:57:18;;;;;;;13.15;5.95;;;;;;;13.75;97.71;102308.66;5027293;28;20488;-71
2023/10/08 04:59:44;;;;;;;11.52;5.63;;;;;;;13.72;97.35;102303.41;5027475;28;20496;-70
2023/10/08 05:08:28;;;;;;;13.07;5.65;;;;;;;13.71;97.49;102312.59;5047051;28;20528;-70
2023/10/08 05:15:41;;;;;;;16.70;6.18;;;;;;;13.63;98.50;102325.88;5028408;28;20029;-71
2023/10/08 05:21:25;;;;;;;11.98;5.20;;;;;;;13.61;97.59;102325.06;5046601;28;20505;-71
2023/10/08 05:24:08;;;;;;;15.65;6.60;;;;;;;13.59;99.14;102322.44;5046676;28;20043;-70
2023/10/08 05:26:41;;;;;;;10.82;5.78;;;;;;;13.56;100.00;102319.00;5035339;28;20037;-70
2023/10/08 05:29:51;;;;;;;12.27;6.25;;;;;;;13.52;99.89;102329.22;5047646;28;20083;-70
2023/10/08 05:35:31;;;;;;;15.63;6.47;;;;;;;13.47;100.00;102342.31;5027379;28;20501;-71
2023/10/08 05:37:47;;;;;;;10.98;5.63;;;;;;;13.48;100.00;102349.56;5026969;28;20079;-71
2023/10/08 05:40:21;;;;;;;9.25;5.57;;;;;;;13.48;100.00;102353.16;5027081;28;20472;-71
2023/10/08 05:42:46;;;;;;;9.13;5.30;;;;;;;13.47;100.00;102355.97;5026772;28;20138;-71
2023/10/08 05:47:38;;;;;;;14.98;5.90;;;;;;;13.46;100.00;102351.47;5027155;28;20029;-69
2023/10/08 05:55:36;;;;;;;11.97;6.47;;;;;;;13.36;100.00;102309.28;5046214;28;20848;-71
2023/10/08 06:03:32;;;;;;;16.02;6.25;;;;;;;13.33;100.00;102295.78;5026232;28;20504;-71
2023/10/08 06:08:51;;;;;;;20.17;6.65;;;;;;;13.30;100.00;102294.13;5027045;28;20037;-72
2023/10/08 06:12:29;;;;;;;17.48;7.82;;;;;;;13.33;100.00;102307.59;5026938;28;20033;-71
2023/10/08 06:17:13;;;;;;;15.05;7.80;;;;;;;13.37;100.00;102331.03;5049447;28;20448;-70
2023/10/08 06:19:39;;;;;;;15.02;7.28;;;;;;;13.39;100.00;102328.25;5034855;28;20041;-70
2023/10/08 06:22:05;;;;;;;17.15;7.60;;;;;;;13.40;100.00;102330.88;5030850;28;20017;-70
2023/10/08 06:24:32;;;;;;;17.58;7.05;;;;;;;13.43;100.00;102343.47;5040126;28;20033;-71
2023/10/08 06:27:04;;;;;;;19.48;7.55;;;;;;;13.43;100.00;102340.72;5038171;28;20365;-70
2023/10/08 06:29:31;;;;;;;14.23;6.93;;;;;;;13.41;100.00;102346.28;5033539;28;20183;-70
2023/10/08 06:32:01;;;;;;;17.55;8.18;;;;;;;13.41;100.00;102348.16;5046512;28;20123;-71
2023/10/08 06:34:28;;;;;;;15.30;7.22;;;;;;;13.42;100.00;102338.97;5049972;28;20032;-71
2023/10/08 06:36:55;;;;;;;14.50;7.15;;;;;;;13.45;100.00;102345.13;5031405;28;20464;-71
2023/10/08 06:39:47;;;;;;;19.02;7.15;;;;;;;13.45;100.00;102347.88;5028569;28;20021;-70
2023/10/08 06:42:16;;;;;;;11.68;6.22;;;;;;;13.47;100.00;102345.91;5029361;28;20546;-71
2023/10/08 06:44:46;;;;;;;16.00;6.22;;;;;;;13.53;100.00;102331.91;5030330;28;20033;-71
2023/10/08 06:47:11;;;;;;;18.45;7.55;;;;;;;13.57;100.00;102335.31;5029362;28;20048;-71
2023/10/08 06:49:38;;;;;;;14.15;6.40;;;;;;;13.61;100.00;102339.59;5030586;28;20120;-71
2023/10/08 06:52:04;;;;;;;15.43;6.85;;;;;;;13.62;100.00;102341.38;5029032;28;20523;-70
2023/10/08 06:54:30;;;;;;;12.45;7.03;;;;;;;13.60;100.00;102353.38;5029526;28;20025;-71
2023/10/08 06:56:56;;;;;;;19.60;7.70;;;;;;;13.56;100.00;102362.75;5041200;28;20067;-71
2023/10/08 06:59:25;;;;;;;15.55;6.88;;;;;;;13.56;100.00;102369.09;5030031;28;20470;-71
2023/10/08 07:01:51;;;;;;;14.13;7.10;;;;;;;13.60;100.00;102372.53;5029320;28;20108;-71
2023/10/08 07:04:18;;;;;;;15.70;7.32;;;;;;;13.64;100.00;102385.03;5028139;28;20045;-71
2023/10/08 07:06:46;;;;;;;17.15;8.30;;;;;;;13.63;100.00;102396.97;5029417;28;20617;-71
2023/10/08 07:11:57;;;;;;;14.20;7.43;;;;;;;13.84;100.00;102378.34;5036177;28;20547;-70
2023/10/08 07:14:26;;;;;;;16.95;7.05;;;;;;;13.93;100.00;102386.00;5035120;28;20033;-70
2023/10/08 07:17:01;;;;;;;13.63;6.90;;;;;;;13.98;100.00;102381.09;5028675;28;20060;-71
2023/10/08 07:19:37;;;;;;;13.77;7.28;;;;;;;14.12;100.00;102383.84;5029335;28;20033;-71
2023/10/08 07:22:06;;;;;;;15.82;7.28;;;;;;;14.22;100.00;102375.94;5029177;28;20033;-70
2023/10/08 07:24:34;;;;;;;12.90;7.20;;;;;;;14.29;100.00;102386.41;5027800;28;20049;-71
2023/10/08 07:27:02;;;;;;;16.23;7.90;;;;;;;14.32;100.00;102384.47;5028818;28;20029;-71
2023/10/08 07:29:28;;;;;;;16.88;9.40;;;;;;;14.36;100.00;102386.94;5027971;28;20045;-70
2023/10/08 07:31:54;;;;;;;15.63;9.05;;;;;;;14.47;100.00;102386.22;5028688;28;20103;-71
2023/10/08 07:34:25;;;;;;;24.13;9.95;;;;;;;14.57;100.00;102400.25;5028371;28;20021;-71
2023/10/08 07:36:52;;;;;;;22.35;10.43;;;;;;;14.64;99.91;102401.59;5037165;28;20137;-71
2023/10/08 07:39:33;;;;;;;18.73;9.85;;;;;;;14.73;99.55;102398.25;5034503;28;20552;-71
2023/10/08 07:42:01;;;;;;;18.60;9.80;;;;;;;14.86;99.30;102404.69;5027757;28;20041;-70
2023/10/08 07:44:28;;;;;;;19.73;10.25;;;;;;;14.97;99.37;102398.53;5032338;28;20086;-70
2023/10/08 07:46:54;;;;;;;17.92;9.75;;;;;;;15.05;98.85;102397.00;5028150;28;20033;-71
2023/10/08 07:49:20;;;;;;;19.58;9.63;;;;;;;15.15;97.39;102399.13;5028462;28;20037;-71
2023/10/08 07:51:51;;;;;;;20.83;9.43;;;;;;;15.24;97.45;102406.75;5028417;28;20034;-70
2023/10/08 07:54:23;;;;;;;29.80;10.43;;;;;;;15.30;96.89;102403.63;5027576;28;20343;-71
2023/10/08 07:56:51;;;;;;;21.25;10.43;;;;;;;15.42;97.46;102393.66;5027833;28;20033;-71
2023/10/08 07:59:17;;;;;;;19.50;10.60;;;;;;;15.46;96.71;102404.31;5036793;28;20098;-69
2023/10/08 08:01:45;;;;;;;19.92;10.73;;;;;;;15.54;96.02;102401.94;5028299;28;20029;-71
2023/10/08 08:04:21;;;;;;;22.40;10.68;;;;;;;15.63;95.16;102405.91;5028455;28;20095;-71
2023/10/08 08:06:49;;;;;;;22.13;10.50;;;;;;;15.67;95.53;102409.38;5040387;28;20044;-71
2023/10/08 08:09:19;;;;;;;18.10;9.82;;;;;;;15.67;96.52;102418.47;5027335;28;20409;-70
2023/10/08 08:11:46;;;;;;;18.92;9.30;;;;;;;15.71;96.17;102435.59;5044453;28;20079;-71
2023/10/08 08:14:16;;;;;;;28.45;11.02;;;;;;;15.70;96.30;102442.06;5048210;28;20127;-71
2023/10/08 08:16:47;;;;;;;22.42;9.93;;;;;;;15.62;97.46;102442.59;5011741;28;20523;-70
2023/10/08 08:19:17;;;;;;;20.58;9.35;;;;;;;15.59;96.81;102444.66;5035219;28;20042;-70
2023/10/08 08:21:45;;;;;;;25.55;10.48;;;;;;;15.51;96.90;102451.50;5029831;28;20037;-71
2023/10/08 08:24:28;;;;;;;22.98;10.20;;;;;;;15.46;96.97;102452.81;5028817;28;20492;-71
2023/10/08 08:27:11;;;;;;;22.30;11.18;;;;;;;15.44;98.18;102457.53;5035550;28;20040;-71
2023/10/08 08:29:45;;;;;;;20.92;10.40;;;;;;;15.56;99.48;102462.19;5038416;28;20041;-71
2023/10/08 08:32:21;;;;;;;25.48;10.23;;;;;;;15.66;98.75;102468.81;5030619;28;20049;-70
2023/10/08 08:34:50;;;;;;;22.67;10.88;;;;;;;15.66;97.16;102473.44;5053158;28;20491;-70
2023/10/08 08:37:16;;;;;;;24.92;10.25;;;;;;;15.73;98.60;102478.41;5042601;28;20123;-71
2023/10/08 08:39:41;;;;;;;20.83;10.48;;;;;;;15.77;97.14;102474.47;5037398;28;20124;-70
2023/10/08 08:42:07;;;;;;;19.65;10.77;;;;;;;15.85;98.90;102473.06;5035353;28;20029;-71
2023/10/08 08:44:45;;;;;;;31.48;12.38;;;;;;;15.97;99.17;102473.09;5026176;28;20493;-70
2023/10/08 08:47:17;;;;;;;28.17;12.73;;;;;;;16.07;97.89;102471.47;5031068;28;20030;-70
2023/10/08 08:49:44;;;;;;;28.23;11.52;;;;;;;16.24;98.97;102469.44;5045906;28;20528;-72
2023/10/08 08:52:09;;;;;;;26.88;12.75;;;;;;;16.43;98.23;102466.25;5044744;28;20079;-71
2023/10/08 08:54:36;;;;;;;23.83;12.30;;;;;;;16.60;97.36;102468.69;5039648;28;20630;-72
2023/10/08 08:57:13;;;;;;;30.05;14.20;;;;;;;16.52;95.99;102471.09;5031737;28;20148;-69
2023/10/08 08:59:44;;;;;;;32.10;13.13;;;;;;;16.59;96.98;102467.78;5027858;28;20045;-71
2023/10/08 09:02:14;;;;;;;34.58;14.25;;;;;;;16.76;96.97;102471.22;5044739;28;20540;-70
2023/10/08 09:04:39;;;;;;;26.30;13.02;;;;;;;16.91;95.92;102474.72;5034699;28;20140;-70
2023/10/08 09:07:04;;;;;;;37.85;14.60;;;;;;;17.01;94.96;102482.16;5035439;28;20100;-71
2023/10/08 09:09:44;;;;;;;30.65;15.00;;;;;;;17.13;94.83;102477.66;5037011;28;20068;-70
2023/10/08 09:12:10;;;;;;;33.08;14.40;;;;;;;17.17;91.69;102489.31;5026617;28;20711;-71
2023/10/08 09:14:36;;;;;;;33.50;14.57;;;;;;;17.03;91.89;102488.44;5027378;28;20044;-70
2023/10/08 09:17:04;;;;;;;38.90;14.10;;;;;;;17.11;95.14;102490.59;5037415;28;20595;-71
2023/10/08 09:19:35;;;;;;;32.22;13.63;;;;;;;17.24;92.74;102485.97;5046915;28;20037;-71
2023/10/08 09:22:11;;;;;;;31.15;13.60;;;;;;;17.44;94.73;102487.25;5037957;28;20052;-71
2023/10/08 09:24:38;;;;;;;26.77;15.23;;;;;;;17.64;94.25;102493.97;5029973;28;20113;-71
2023/10/08 09:27:08;;;;;;;29.23;13.10;;;;;;;17.82;92.51;102488.97;5043716;28;20033;-71
2023/10/08 09:29:39;;;;;;;31.55;14.95;;;;;;;17.88;92.39;102490.38;5026776;28;20076;-72
2023/10/08 09:32:06;;;;;;;35.38;14.27;;;;;;;18.01;91.42;102497.56;5030082;28;20053;-71
2023/10/08 09:34:32;;;;;;;27.02;15.02;;;;;;;17.96;89.34;102490.66;5027168;28;20060;-70
2023/10/08 09:37:00;;;;;;;26.92;14.13;;;;;;;17.90;89.84;102502.13;5026634;28;20132;-70
2023/10/08 09:39:28;;;;;;;37.35;14.82;;;;;;;18.00;92.03;102494.91;5026759;28;20049;-71
2023/10/08 09:41:57;;;;;;;28.15;14.02;;;;;;;18.28;90.80;102504.69;5026208;28;20131;-71
2023/10/08 09:44:25;;;;;;;22.23;13.50;;;;;;;18.36;90.07;102504.94;5026529;28;20052;-71
2023/10/08 09:47:04;;;;;;;32.65;14.98;;;;;;;18.41;89.85;102496.31;5027261;28;20527;-71
2023/10/08 09:49:56;;;;;;;27.60;15.85;;;;;;;18.53;88.28;102484.31;5027603;28;20111;-71
2023/10/08 09:52:29;;;;;;;26.95;13.82;;;;;;;18.71;89.04;102480.09;5030503;28;20128;-71
2023/10/08 09:55:12;;;;;;;32.45;15.82;;;;;;;18.90;88.36;102482.25;5030795;28;20498;-70
2023/10/08 09:57:37;;;;;;;37.55;16.20;;;;;;;18.68;85.64;102477.56;5031017;28;20113;-71
2023/10/08 10:00:09;;;;;;;26.83;15.05;;;;;;;18.63;88.32;102468.78;5030595;28;20124;-70
2023/10/08 10:02:37;;;;;;;36.45;16.08;;;;;;;18.76;88.33;102466.81;5030865;28;20099;-71
2023/10/08 10:05:02;;;;;;;30.52;16.90;;;;;;;18.97;88.09;102458.66;5031095;28;20041;-71
2023/10/08 10:07:29;;;;;;;33.75;16.00;;;;;;;19.06;86.00;102455.13;5030982;28;20442;-70
2023/10/08 10:09:55;;;;;;;38.05;15.50;;;;;;;19.13;85.30;102461.03;5030227;28;20045;-71
2023/10/08 10:12:25;;;;;;;28.65;14.15;;;;;;;19.19;85.28;102466.03;5030559;28;20045;-71
2023/10/08 10:14:55;;;;;;;39.63;15.25;;;;;;;19.19;85.46;102459.66;5031718;28;20099;-71
2023/10/08 10:17:26;;;;;;;45.67;16.13;;;;;;;19.15;85.32;102475.56;5035920;28;20025;-71
2023/10/08 10:19:55;;;;;;;34.83;14.55;;;;;;;19.03;86.05;102473.84;5043611;28;20064;-72
2023/10/08 10:22:29;;;;;;;43.75;14.57;;;;;;;18.97;86.62;102488.13;5050549;28;20051;-70
2023/10/08 10:24:56;;;;;;;35.45;14.43;;;;;;;18.88;87.33;102488.88;5034659;28;20033;-72
2023/10/08 10:27:22;;;;;;;37.38;14.43;;;;;;;18.85;87.35;102484.50;5032116;28;20540;-72
2023/10/08 10:29:48;;;;;;;32.25;14.52;;;;;;;18.84;87.50;102469.84;5030466;28;20133;-72
2023/10/08 10:32:15;;;;;;;36.42;14.52;;;;;;;18.86;87.26;102469.72;5029158;28;20638;-72
2023/10/08 10:34:42;;;;;;;39.03;15.82;;;;;;;18.85;87.02;102479.88;5030220;28;20515;-71
2023/10/08 10:37:19;;;;;;;36.20;14.60;;;;;;;18.88;87.86;102478.72;5030305;28;20482;-71
2023/10/08 10:40:00;;;;;;;35.05;14.10;;;;;;;18.89;88.55;102482.38;5028827;28;20555;-71
2023/10/08 10:42:28;;;;;;;39.53;14.00;;;;;;;18.94;88.33;102474.59;5029208;28;20067;-71
2023/10/08 10:44:55;;;;;;;43.03;15.18;;;;;;;19.00;86.62;102488.75;5031471;28;20033;-71
2023/10/08 10:52:34;;;;;;;30.83;14.07;;;;;;;18.91;87.48;102480.38;5030827;28;20044;-72
2023/10/08 10:57:55;;;;;;;47.13;14.00;;;;;;;18.83;88.21;102490.13;5031327;28;20045;-71
2023/10/08 11:00:47;;;;;;;40.00;15.07;;;;;;;18.74;86.70;102490.88;5029259;28;20036;-70
2023/10/08 11:03:25;;;;;;;38.50;13.65;;;;;;;18.64;88.19;102491.72;5030991;28;20091;-71
2023/10/08 11:05:59;;;;;;;39.65;14.00;;;;;;;18.46;88.10;102494.94;5047482;28;20502;-72
2023/10/08 11:08:25;;;;;;;34.92;13.15;;;;;;;18.47;88.36;102501.34;5046280;28;20107;-70
2023/10/08 11:10:53;;;;;;;41.65;14.25;;;;;;;18.52;88.96;102494.47;5028296;28;20047;-71
2023/10/08 11:13:20;;;;;;;29.63;13.02;;;;;;;18.62;89.09;102494.59;5040999;28;20433;-71
2023/10/08 11:15:51;;;;;;;31.90;13.85;;;;;;;18.65;87.96;102493.47;5031014;28;20540;-71
2023/10/08 11:18:28;;;;;;;31.23;14.02;;;;;;;18.63;88.36;102489.97;5028478;28;20038;-71
2023/10/08 11:21:13;;;;;;;24.67;12.18;;;;;;;18.67;88.44;102489.59;5028533;28;20123;-71
2023/10/08 11:23:52;;;;;;;25.25;11.90;;;;;;;18.71;88.25;102490.25;5029545;28;20072;-69
2023/10/08 11:26:19;;;;;;;19.42;10.32;;;;;;;18.59;87.66;102498.47;5034408;28;20048;-71
2023/10/08 11:28:47;;;;;;;27.10;10.32;;;;;;;18.56;89.17;102490.47;5048847;28;20033;-71
2023/10/08 11:31:14;;;;;;;24.08;11.15;;;;;;;18.66;88.12;102486.97;5034124;28;20048;-72
2023/10/08 11:33:56;;;;;;;23.42;11.23;;;;;;;18.71;87.46;102482.00;5029041;28;20083;-70
2023/10/08 11:36:29;;;;;;;21.95;10.90;;;;;;;18.73;87.10;102483.59;5028390;28;20048;-70
2023/10/08 11:39:00;;;;;;;27.02;11.20;;;;;;;18.75;87.29;102481.63;5028878;28;20043;-72
2023/10/08 11:41:29;;;;;;;20.85;9.68;;;;;;;18.67;86.06;102484.09;5029574;28;20441;-71
2023/10/08 11:43:58;;;;;;;20.15;9.13;;;;;;;18.75;88.75;102481.63;5028667;28;20025;-71
2023/10/08 11:46:38;;;;;;;23.63;9.55;;;;;;;18.76;86.23;102479.75;5029005;28;20385;-71
2023/10/08 11:49:07;;;;;;;18.58;9.30;;;;;;;18.75;85.09;102481.63;5028912;28;20042;-71
2023/10/08 11:51:34;;;;;;;18.05;8.98;;;;;;;18.79;85.98;102469.34;5029394;28;20483;-71
2023/10/08 11:54:05;;;;;;;18.90;8.70;;;;;;;18.70;85.56;102469.19;5040844;28;20126;-72
2023/10/08 11:56:33;;;;;;;19.52;8.45;;;;;;;18.63;86.32;102463.28;5048847;28;20033;-70
2023/10/08 11:59:01;;;;;;;22.63;8.52;;;;;;;18.55;86.47;102466.63;5048636;28;20491;-71
2023/10/08 12:01:27;;;;;;;23.83;9.65;;;;;;;18.52;86.73;102453.13;5046159;28;20055;-71
2023/10/08 12:03:59;;;;;;;17.15;8.65;;;;;;;18.55;86.79;102457.50;5048225;28;20402;-72
2023/10/08 12:06:24;;;;;;;14.93;8.70;;;;;;;18.55;86.17;102454.72;5042912;28;20037;-71
2023/10/08 12:08:53;;;;;;;20.42;9.32;;;;;;;18.55;86.21;102447.34;5029938;28;20047;-72
2023/10/08 12:11:19;;;;;;;20.42;10.05;;;;;;;18.51;86.13;102447.72;5048589;28;20094;-71
2023/10/08 12:13:45;;;;;;;18.05;10.05;;;;;;;18.47;85.94;102454.50;5030351;28;20473;-71
2023/10/08 12:16:22;;;;;;;18.27;9.25;;;;;;;18.51;87.29;102445.84;5036376;28;20782;-71
2023/10/08 12:18:53;;;;;;;18.42;10.45;;;;;;;18.61;87.26;102448.75;5027834;28;20041;-72
2023/10/08 12:21:19;;;;;;;23.60;10.38;;;;;;;18.58;86.64;102436.06;5040955;28;20041;-72
2023/10/08 12:23:46;;;;;;;20.88;10.60;;;;;;;18.61;87.33;102438.59;5026908;28;20182;-71
2023/10/08 12:26:15;;;;;;;22.35;9.43;;;;;;;18.69;86.13;102434.34;5028094;28;20045;-71